sensor_id;sensor_type;location;lat;lon;timestamp;pressure;altitude;pressure_sealevel;temperature;humidity
51147;BME280;37207;53.060;18.726;2023-01-29T00:02:08;101599.08;;;-1.80;85.19
51147;BME280;37207;53.060;18.726;2023-01-29T00:04:34;101596.38;;;-1.78;85.31
51147;BME280;37207;53.060;18.726;2023-01-29T00:07:01;101593.91;;;-1.76;85.35
51147;BME280;37207;53.060;18.726;2023-01-29T00:09:28;101588.27;;;-1.74;85.57
51147;BME280;37207;53.060;18.726;2023-01-29T00:11:54;101588.73;;;-1.72;85.24
51147;BME280;37207;53.060;18.726;2023-01-29T00:14:21;101582.31;;;-1.70;85.35
51147;BME280;37207;53.060;18.726;2023-01-29T00:16:47;101577.38;;;-1.70;85.37
51147;BME280;37207;53.060;18.726;2023-01-29T00:19:14;101570.18;;;-1.68;85.21
51147;BME280;37207;53.060;18.726;2023-01-29T00:21:40;101565.92;;;-1.67;85.64
51147;BME280;37207;53.060;18.726;2023-01-29T00:26:52;101559.05;;;-1.66;85.62
51147;BME280;37207;53.060;18.726;2023-01-29T00:29:19;101553.48;;;-1.65;85.57
51147;BME280;37207;53.060;18.726;2023-01-29T00:31:47;101550.02;;;-1.64;85.35
51147;BME280;37207;53.060;18.726;2023-01-29T00:34:15;101543.44;;;-1.63;85.30
51147;BME280;37207;53.060;18.726;2023-01-29T00:36:42;101542.98;;;-1.62;85.60
51147;BME280;37207;53.060;18.726;2023-01-29T00:39:12;101548.65;;;-1.59;85.47
51147;BME280;37207;53.060;18.726;2023-01-29T00:41:38;101549.05;;;-1.58;85.41
51147;BME280;37207;53.060;18.726;2023-01-29T00:44:23;101548.51;;;-1.56;85.17
51147;BME280;37207;53.060;18.726;2023-01-29T00:47:09;101540.52;;;-1.55;85.44
51147;BME280;37207;53.060;18.726;2023-01-29T00:49:54;101539.07;;;-1.53;85.22
51147;BME280;37207;53.060;18.726;2023-01-29T00:52:22;101540.84;;;-1.52;85.20
51147;BME280;37207;53.060;18.726;2023-01-29T00:54:52;101541.86;;;-1.51;85.46
51147;BME280;37207;53.060;18.726;2023-01-29T00:57:19;101546.98;;;-1.49;85.41
51147;BME280;37207;53.060;18.726;2023-01-29T00:59:46;101551.48;;;-1.48;85.38
51147;BME280;37207;53.060;18.726;2023-01-29T01:02:12;101554.20;;;-1.47;85.56
51147;BME280;37207;53.060;18.726;2023-01-29T01:04:58;101554.59;;;-1.46;85.27
51147;BME280;37207;53.060;18.726;2023-01-29T01:07:25;101558.17;;;-1.45;85.34
51147;BME280;37207;53.060;18.726;2023-01-29T01:09:51;101555.70;;;-1.45;85.15
51147;BME280;37207;53.060;18.726;2023-01-29T01:12:36;101556.01;;;-1.44;85.33
51147;BME280;37207;53.060;18.726;2023-01-29T01:15:03;101553.54;;;-1.43;85.40
51147;BME280;37207;53.060;18.726;2023-01-29T01:17:30;101554.30;;;-1.43;85.05
51147;BME280;37207;53.060;18.726;2023-01-29T01:19:56;101552.84;;;-1.43;85.05
51147;BME280;37207;53.060;18.726;2023-01-29T01:22:23;101552.91;;;-1.44;85.26
51147;BME280;37207;53.060;18.726;2023-01-29T01:24:50;101557.71;;;-1.43;84.89
51147;BME280;37207;53.060;18.726;2023-01-29T01:27:16;101555.78;;;-1.43;84.96
51147;BME280;37207;53.060;18.726;2023-01-29T01:29:45;101556.09;;;-1.44;84.90
51147;BME280;37207;53.060;18.726;2023-01-29T01:32:12;101555.92;;;-1.44;84.94
51147;BME280;37207;53.060;18.726;2023-01-29T01:34:39;101554.68;;;-1.45;84.75
51147;BME280;37207;53.060;18.726;2023-01-29T01:37:05;101551.58;;;-1.46;85.08
51147;BME280;37207;53.060;18.726;2023-01-29T01:39:32;101548.71;;;-1.46;84.91
51147;BME280;37207;53.060;18.726;2023-01-29T01:41:58;101545.37;;;-1.47;85.03
51147;BME280;37207;53.060;18.726;2023-01-29T01:47:21;101549.39;;;-1.48;84.83
51147;BME280;37207;53.060;18.726;2023-01-29T01:49:49;101551.48;;;-1.49;84.93
51147;BME280;37207;53.060;18.726;2023-01-29T01:52:17;101556.12;;;-1.49;84.80
51147;BME280;37207;53.060;18.726;2023-01-29T01:54:44;101562.48;;;-1.49;85.01
51147;BME280;37207;53.060;18.726;2023-01-29T01:57:15;101562.08;;;-1.49;84.89
51147;BME280;37207;53.060;18.726;2023-01-29T01:59:48;101558.98;;;-1.48;84.90
51147;BME280;37207;53.060;18.726;2023-01-29T02:02:16;101557.67;;;-1.49;84.96
51147;BME280;37207;53.060;18.726;2023-01-29T02:05:02;101559.08;;;-1.48;85.09
51147;BME280;37207;53.060;18.726;2023-01-29T02:07:49;101556.05;;;-1.48;84.92
51147;BME280;37207;53.060;18.726;2023-01-29T02:10:40;101548.86;;;-1.48;85.05
51147;BME280;37207;53.060;18.726;2023-01-29T02:13:08;101545.67;;;-1.48;85.04
51147;BME280;37207;53.060;18.726;2023-01-29T02:15:35;101546.52;;;-1.49;84.88
51147;BME280;37207;53.060;18.726;2023-01-29T02:18:02;101545.60;;;-1.49;85.19
51147;BME280;37207;53.060;18.726;2023-01-29T02:20:30;101540.65;;;-1.49;85.08
51147;BME280;37207;53.060;18.726;2023-01-29T02:28:51;101536.08;;;-1.49;84.89
51147;BME280;37207;53.060;18.726;2023-01-29T02:31:36;101535.21;;;-1.50;85.02
51147;BME280;37207;53.060;18.726;2023-01-29T02:34:21;101532.91;;;-1.49;84.99
51147;BME280;37207;53.060;18.726;2023-01-29T02:37:04;101516.95;;;-1.49;84.90
51147;BME280;37207;53.060;18.726;2023-01-29T02:39:44;101508.75;;;-1.48;84.73
51147;BME280;37207;53.060;18.726;2023-01-29T02:45:03;101508.99;;;-1.46;84.74
51147;BME280;37207;53.060;18.726;2023-01-29T02:48:00;101496.36;;;-1.47;85.04
51147;BME280;37207;53.060;18.726;2023-01-29T02:50:49;101495.14;;;-1.46;84.90
51147;BME280;37207;53.060;18.726;2023-01-29T02:53:25;101494.98;;;-1.46;84.94
51147;BME280;37207;53.060;18.726;2023-01-29T02:56:01;101494.74;;;-1.46;84.83
51147;BME280;37207;53.060;18.726;2023-01-29T02:58:37;101497.16;;;-1.45;85.00
51147;BME280;37207;53.060;18.726;2023-01-29T03:01:10;101491.97;;;-1.45;84.83
51147;BME280;37207;53.060;18.726;2023-01-29T03:03:41;101490.27;;;-1.45;85.17
51147;BME280;37207;53.060;18.726;2023-01-29T03:06:19;101487.48;;;-1.44;84.86
51147;BME280;37207;53.060;18.726;2023-01-29T03:08:58;101478.89;;;-1.44;84.91
51147;BME280;37207;53.060;18.726;2023-01-29T03:11:31;101476.57;;;-1.43;84.97
51147;BME280;37207;53.060;18.726;2023-01-29T03:14:16;101472.16;;;-1.43;84.88
51147;BME280;37207;53.060;18.726;2023-01-29T03:16:50;101473.00;;;-1.43;84.98
51147;BME280;37207;53.060;18.726;2023-01-29T03:21:50;101458.21;;;-1.43;85.05
51147;BME280;37207;53.060;18.726;2023-01-29T03:27:41;101437.31;;;-1.43;85.07
51147;BME280;37207;53.060;18.726;2023-01-29T03:30:35;101431.59;;;-1.43;84.89
51147;BME280;37207;53.060;18.726;2023-01-29T03:33:31;101429.33;;;-1.43;84.98
51147;BME280;37207;53.060;18.726;2023-01-29T03:36:07;101421.73;;;-1.44;84.99
51147;BME280;37207;53.060;18.726;2023-01-29T03:38:34;101416.17;;;-1.44;85.44
51147;BME280;37207;53.060;18.726;2023-01-29T03:41:24;101411.75;;;-1.43;85.04
51147;BME280;37207;53.060;18.726;2023-01-29T03:44:24;101409.27;;;-1.43;85.18
51147;BME280;37207;53.060;18.726;2023-01-29T03:47:00;101407.11;;;-1.43;84.74
51147;BME280;37207;53.060;18.726;2023-01-29T03:49:49;101401.46;;;-1.43;85.12
51147;BME280;37207;53.060;18.726;2023-01-29T03:55:16;101397.52;;;-1.41;85.28
51147;BME280;37207;53.060;18.726;2023-01-29T03:58:12;101395.83;;;-1.40;85.04
51147;BME280;37207;53.060;18.726;2023-01-29T04:01:28;101404.11;;;-1.39;85.11
51147;BME280;37207;53.060;18.726;2023-01-29T04:04:00;101404.63;;;-1.38;84.96
51147;BME280;37207;53.060;18.726;2023-01-29T04:06:31;101408.73;;;-1.38;84.91
51147;BME280;37207;53.060;18.726;2023-01-29T04:09:15;101403.61;;;-1.38;84.69
51147;BME280;37207;53.060;18.726;2023-01-29T04:11:54;101405.71;;;-1.37;85.19
51147;BME280;37207;53.060;18.726;2023-01-29T04:14:23;101410.13;;;-1.37;85.18
51147;BME280;37207;53.060;18.726;2023-01-29T04:16:52;101408.50;;;-1.37;85.07
51147;BME280;37207;53.060;18.726;2023-01-29T04:19:35;101402.54;;;-1.37;85.12
51147;BME280;37207;53.060;18.726;2023-01-29T04:22:06;101410.52;;;-1.36;85.00
51147;BME280;37207;53.060;18.726;2023-01-29T04:24:36;101400.06;;;-1.36;85.08
51147;BME280;37207;53.060;18.726;2023-01-29T04:27:05;101400.21;;;-1.37;84.90
51147;BME280;37207;53.060;18.726;2023-01-29T04:29:42;101394.09;;;-1.38;85.28
51147;BME280;37207;53.060;18.726;2023-01-29T04:38:02;101379.23;;;-1.40;85.03
51147;BME280;37207;53.060;18.726;2023-01-29T04:43:24;101369.33;;;-1.43;85.33
51147;BME280;37207;53.060;18.726;2023-01-29T04:48:29;101364.20;;;-1.49;85.37
51147;BME280;37207;53.060;18.726;2023-01-29T04:51:09;101365.73;;;-1.51;85.61
51147;BME280;37207;53.060;18.726;2023-01-29T04:53:42;101368.21;;;-1.53;85.61
51147;BME280;37207;53.060;18.726;2023-01-29T04:56:25;101364.02;;;-1.53;85.71
51147;BME280;37207;53.060;18.726;2023-01-29T04:59:00;101359.30;;;-1.54;85.93
51147;BME280;37207;53.060;18.726;2023-01-29T05:01:30;101363.55;;;-1.54;85.86
51147;BME280;37207;53.060;18.726;2023-01-29T05:04:02;101355.19;;;-1.54;85.99
51147;BME280;37207;53.060;18.726;2023-01-29T05:06:30;101352.79;;;-1.54;86.42
51147;BME280;37207;53.060;18.726;2023-01-29T05:08:59;101356.05;;;-1.54;85.99
51147;BME280;37207;53.060;18.726;2023-01-29T05:11:29;101353.57;;;-1.54;86.15
51147;BME280;37207;53.060;18.726;2023-01-29T05:13:58;101354.73;;;-1.54;86.26
51147;BME280;37207;53.060;18.726;2023-01-29T05:16:29;101359.61;;;-1.53;86.40
51147;BME280;37207;53.060;18.726;2023-01-29T05:19:10;101366.11;;;-1.54;86.24
51147;BME280;37207;53.060;18.726;2023-01-29T05:21:38;101367.82;;;-1.53;86.36
51147;BME280;37207;53.060;18.726;2023-01-29T05:26:43;101368.20;;;-1.53;86.72
51147;BME280;37207;53.060;18.726;2023-01-29T05:29:29;101364.87;;;-1.54;86.69
51147;BME280;37207;53.060;18.726;2023-01-29T05:31:55;101364.56;;;-1.54;87.13
51147;BME280;37207;53.060;18.726;2023-01-29T05:34:22;101359.91;;;-1.55;86.82
51147;BME280;37207;53.060;18.726;2023-01-29T05:36:49;101357.45;;;-1.56;87.47
51147;BME280;37207;53.060;18.726;2023-01-29T05:39:16;101359.38;;;-1.58;87.42
51147;BME280;37207;53.060;18.726;2023-01-29T05:41:42;101354.27;;;-1.59;87.23
51147;BME280;37207;53.060;18.726;2023-01-29T05:44:09;101354.59;;;-1.60;87.92
51147;BME280;37207;53.060;18.726;2023-01-29T05:46:37;101359.69;;;-1.61;87.72
51147;BME280;37207;53.060;18.726;2023-01-29T05:49:04;101359.98;;;-1.63;87.99
51147;BME280;37207;53.060;18.726;2023-01-29T05:51:31;101362.23;;;-1.64;88.36
51147;BME280;37207;53.060;18.726;2023-01-29T05:53:58;101365.16;;;-1.66;88.37
51147;BME280;37207;53.060;18.726;2023-01-29T05:56:24;101368.71;;;-1.69;88.60
51147;BME280;37207;53.060;18.726;2023-01-29T05:58:51;101370.02;;;-1.69;88.57
51147;BME280;37207;53.060;18.726;2023-01-29T06:01:21;101372.50;;;-1.71;88.62
51147;BME280;37207;53.060;18.726;2023-01-29T06:03:48;101369.16;;;-1.73;88.42
51147;BME280;37207;53.060;18.726;2023-01-29T06:06:15;101374.75;;;-1.73;88.71
51147;BME280;37207;53.060;18.726;2023-01-29T06:08:42;101375.60;;;-1.74;89.00
51147;BME280;37207;53.060;18.726;2023-01-29T06:11:11;101379.62;;;-1.75;89.11
51147;BME280;37207;53.060;18.726;2023-01-29T06:13:38;101380.63;;;-1.76;89.36
51147;BME280;37207;53.060;18.726;2023-01-29T06:16:07;101385.10;;;-1.78;89.61
51147;BME280;37207;53.060;18.726;2023-01-29T06:18:35;101380.92;;;-1.78;89.42
51147;BME280;37207;53.060;18.726;2023-01-29T06:21:03;101379.92;;;-1.78;89.55
51147;BME280;37207;53.060;18.726;2023-01-29T06:23:30;101384.64;;;-1.78;89.65
51147;BME280;37207;53.060;18.726;2023-01-29T06:26:02;101387.81;;;-1.78;89.65
51147;BME280;37207;53.060;18.726;2023-01-29T06:28:29;101386.95;;;-1.78;89.62
51147;BME280;37207;53.060;18.726;2023-01-29T06:30:57;101383.63;;;-1.79;89.37
51147;BME280;37207;53.060;18.726;2023-01-29T06:33:25;101384.02;;;-1.79;89.93
51147;BME280;37207;53.060;18.726;2023-01-29T06:35:56;101384.02;;;-1.78;89.67
51147;BME280;37207;53.060;18.726;2023-01-29T06:38:23;101392.45;;;-1.77;89.46
51147;BME280;37207;53.060;18.726;2023-01-29T06:40:50;101391.84;;;-1.76;89.98
51147;BME280;37207;53.060;18.726;2023-01-29T06:43:17;101393.55;;;-1.76;90.02
51147;BME280;37207;53.060;18.726;2023-01-29T06:45:48;101395.18;;;-1.75;90.03
51147;BME280;37207;53.060;18.726;2023-01-29T06:48:16;101396.96;;;-1.75;90.02
51147;BME280;37207;53.060;18.726;2023-01-29T06:53:10;101399.89;;;-1.73;89.74
51147;BME280;37207;53.060;18.726;2023-01-29T06:55:36;101392.77;;;-1.72;90.35
51147;BME280;37207;53.060;18.726;2023-01-29T06:58:05;101387.98;;;-1.71;90.15
51147;BME280;37207;53.060;18.726;2023-01-29T07:00:32;101376.38;;;-1.70;90.41
51147;BME280;37207;53.060;18.726;2023-01-29T07:02:59;101381.41;;;-1.68;90.47
51147;BME280;37207;53.060;18.726;2023-01-29T07:05:25;101382.65;;;-1.67;90.86
51147;BME280;37207;53.060;18.726;2023-01-29T07:07:52;101385.36;;;-1.66;90.99
51147;BME280;37207;53.060;18.726;2023-01-29T07:10:19;101380.48;;;-1.64;90.76
51147;BME280;37207;53.060;18.726;2023-01-29T07:12:46;101383.36;;;-1.63;91.10
51147;BME280;37207;53.060;18.726;2023-01-29T07:15:12;101389.56;;;-1.62;90.76
51147;BME280;37207;53.060;18.726;2023-01-29T07:17:39;101386.09;;;-1.60;90.88
51147;BME280;37207;53.060;18.726;2023-01-29T07:20:06;101388.88;;;-1.60;91.11
51147;BME280;37207;53.060;18.726;2023-01-29T07:22:33;101391.83;;;-1.58;91.29
51147;BME280;37207;53.060;18.726;2023-01-29T07:25:00;101392.89;;;-1.56;91.42
51147;BME280;37207;53.060;18.726;2023-01-29T07:27:26;101392.83;;;-1.53;91.19
51147;BME280;37207;53.060;18.726;2023-01-29T07:29:53;101383.77;;;-1.51;91.23
51147;BME280;37207;53.060;18.726;2023-01-29T07:32:20;101380.62;;;-1.47;91.17
51147;BME280;37207;53.060;18.726;2023-01-29T07:34:46;101384.50;;;-1.45;91.33
51147;BME280;37207;53.060;18.726;2023-01-29T07:37:13;101378.54;;;-1.43;91.01
51147;BME280;37207;53.060;18.726;2023-01-29T07:39:39;101376.30;;;-1.42;90.83
51147;BME280;37207;53.060;18.726;2023-01-29T07:42:06;101372.44;;;-1.40;91.19
51147;BME280;37207;53.060;18.726;2023-01-29T07:44:33;101373.59;;;-1.39;91.27
51147;BME280;37207;53.060;18.726;2023-01-29T07:46:59;101371.73;;;-1.36;91.20
51147;BME280;37207;53.060;18.726;2023-01-29T07:49:26;101364.69;;;-1.33;91.17
51147;BME280;37207;53.060;18.726;2023-01-29T07:51:52;101359.50;;;-1.30;91.26
51147;BME280;37207;53.060;18.726;2023-01-29T07:54:19;101354.71;;;-1.26;91.36
51147;BME280;37207;53.060;18.726;2023-01-29T07:56:46;101357.27;;;-1.24;91.04
51147;BME280;37207;53.060;18.726;2023-01-29T07:59:12;101360.14;;;-1.21;90.94
51147;BME280;37207;53.060;18.726;2023-01-29T08:01:39;101358.80;;;-1.18;90.73
51147;BME280;37207;53.060;18.726;2023-01-29T08:04:05;101361.52;;;-1.15;90.83
51147;BME280;37207;53.060;18.726;2023-01-29T08:06:32;101356.95;;;-1.12;91.27
51147;BME280;37207;53.060;18.726;2023-01-29T08:08:59;101350.45;;;-1.08;90.91
51147;BME280;37207;53.060;18.726;2023-01-29T08:11:25;101349.23;;;-1.06;91.04
51147;BME280;37207;53.060;18.726;2023-01-29T08:13:52;101350.29;;;-1.03;90.82
51147;BME280;37207;53.060;18.726;2023-01-29T08:16:20;101345.79;;;-1.02;90.63
51147;BME280;37207;53.060;18.726;2023-01-29T08:18:46;101340.30;;;-0.99;90.52
51147;BME280;37207;53.060;18.726;2023-01-29T08:21:14;101338.05;;;-0.95;90.80
51147;BME280;37207;53.060;18.726;2023-01-29T08:23:41;101341.23;;;-0.91;90.78
51147;BME280;37207;53.060;18.726;2023-01-29T08:26:08;101334.33;;;-0.86;90.83
51147;BME280;37207;53.060;18.726;2023-01-29T08:28:35;101331.83;;;-0.80;90.86
51147;BME280;37207;53.060;18.726;2023-01-29T08:31:11;101326.88;;;-0.74;90.75
51147;BME280;37207;53.060;18.726;2023-01-29T08:33:37;101325.36;;;-0.67;90.68
51147;BME280;37207;53.060;18.726;2023-01-29T08:36:05;101324.73;;;-0.62;90.50
51147;BME280;37207;53.060;18.726;2023-01-29T08:38:31;101325.52;;;-0.58;90.44
51147;BME280;37207;53.060;18.726;2023-01-29T08:40:58;101323.80;;;-0.54;90.63
51147;BME280;37207;53.060;18.726;2023-01-29T08:43:25;101317.90;;;-0.51;90.35
51147;BME280;37207;53.060;18.726;2023-01-29T08:45:51;101313.08;;;-0.51;90.12
51147;BME280;37207;53.060;18.726;2023-01-29T08:48:18;101311.45;;;-0.49;90.12
51147;BME280;37207;53.060;18.726;2023-01-29T08:50:45;101307.41;;;-0.50;90.49
51147;BME280;37207;53.060;18.726;2023-01-29T08:53:12;101303.00;;;-0.51;90.28
51147;BME280;37207;53.060;18.726;2023-01-29T08:55:39;101300.59;;;-0.51;90.45
51147;BME280;37207;53.060;18.726;2023-01-29T08:58:07;101296.17;;;-0.51;90.47
51147;BME280;37207;53.060;18.726;2023-01-29T09:00:35;101293.77;;;-0.50;90.26
51147;BME280;37207;53.060;18.726;2023-01-29T09:03:02;101300.20;;;-0.50;90.71
51147;BME280;37207;53.060;18.726;2023-01-29T09:05:29;101300.74;;;-0.50;90.29
51147;BME280;37207;53.060;18.726;2023-01-29T09:07:56;101298.27;;;-0.50;90.31
51147;BME280;37207;53.060;18.726;2023-01-29T09:10:23;101306.48;;;-0.49;90.42
51147;BME280;37207;53.060;18.726;2023-01-29T09:12:50;101304.85;;;-0.50;90.60
51147;BME280;37207;53.060;18.726;2023-01-29T09:15:17;101309.66;;;-0.49;90.79
51147;BME280;37207;53.060;18.726;2023-01-29T09:17:43;101313.23;;;-0.48;90.84
51147;BME280;37207;53.060;18.726;2023-01-29T09:20:10;101319.04;;;-0.47;90.80
51147;BME280;37207;53.060;18.726;2023-01-29T09:22:37;101316.79;;;-0.46;90.73
51147;BME280;37207;53.060;18.726;2023-01-29T09:25:03;101314.46;;;-0.44;90.67
51147;BME280;37207;53.060;18.726;2023-01-29T09:27:30;101312.36;;;-0.43;90.67
51147;BME280;37207;53.060;18.726;2023-01-29T09:29:57;101309.20;;;-0.42;90.68
51147;BME280;37207;53.060;18.726;2023-01-29T09:32:23;101311.98;;;-0.41;90.61
51147;BME280;37207;53.060;18.726;2023-01-29T09:34:50;101310.19;;;-0.41;90.77
51147;BME280;37207;53.060;18.726;2023-01-29T09:37:17;101309.41;;;-0.40;90.47
51147;BME280;37207;53.060;18.726;2023-01-29T09:39:43;101303.05;;;-0.40;90.77
51147;BME280;37207;53.060;18.726;2023-01-29T09:42:16;101295.23;;;-0.39;90.52
51147;BME280;37207;53.060;18.726;2023-01-29T09:44:52;101289.64;;;-0.39;90.81
51147;BME280;37207;53.060;18.726;2023-01-29T09:47:23;101289.79;;;-0.38;90.71
51147;BME280;37207;53.060;18.726;2023-01-29T09:50:12;101286.45;;;-0.37;90.90
51147;BME280;37207;53.060;18.726;2023-01-29T09:52:50;101286.34;;;-0.33;90.94
51147;BME280;37207;53.060;18.726;2023-01-29T09:55:25;101283.54;;;-0.30;90.94
51147;BME280;37207;53.060;18.726;2023-01-29T09:57:53;101280.52;;;-0.29;90.84
51147;BME280;37207;53.060;18.726;2023-01-29T10:00:34;101277.94;;;-0.28;90.73
51147;BME280;37207;53.060;18.726;2023-01-29T10:08:41;101278.08;;;-0.21;90.65
51147;BME280;37207;53.060;18.726;2023-01-29T10:11:27;101274.58;;;-0.19;90.65
51147;BME280;37207;53.060;18.726;2023-01-29T10:14:16;101274.66;;;-0.18;90.83
51147;BME280;37207;53.060;18.726;2023-01-29T10:17:08;101272.48;;;-0.18;90.66
51147;BME280;37207;53.060;18.726;2023-01-29T10:20:02;101265.98;;;-0.19;90.87
51147;BME280;37207;53.060;18.726;2023-01-29T10:25:40;101253.56;;;-0.21;90.66
51147;BME280;37207;53.060;18.726;2023-01-29T10:28:28;101244.80;;;-0.21;90.82
51147;BME280;37207;53.060;18.726;2023-01-29T10:30:59;101239.91;;;-0.21;90.91
51147;BME280;37207;53.060;18.726;2023-01-29T10:33:32;101237.80;;;-0.20;91.00
51147;BME280;37207;53.060;18.726;2023-01-29T10:36:04;101229.77;;;-0.16;91.26
51147;BME280;37207;53.060;18.726;2023-01-29T10:41:05;101220.61;;;-0.13;91.26
51147;BME280;37207;53.060;18.726;2023-01-29T10:52:18;101194.29;;;-0.09;91.23
51147;BME280;37207;53.060;18.726;2023-01-29T10:58:47;101195.05;;;-0.07;91.27
51147;BME280;37207;53.060;18.726;2023-01-29T11:00:51;101185.04;;;-0.05;91.34
51147;BME280;37207;53.060;18.726;2023-01-29T11:03:25;101185.55;;;-0.01;91.61
51147;BME280;37207;53.060;18.726;2023-01-29T11:11:32;101178.39;;;0.14;91.51
51147;BME280;37207;53.060;18.726;2023-01-29T11:14:04;101179.46;;;0.16;91.29
51147;BME280;37207;53.060;18.726;2023-01-29T11:16:45;101171.16;;;0.14;91.48
51147;BME280;37207;53.060;18.726;2023-01-29T11:19:13;101159.68;;;0.13;91.51
51147;BME280;37207;53.060;18.726;2023-01-29T11:22:00;101147.96;;;0.14;91.33
51147;BME280;37207;53.060;18.726;2023-01-29T11:24:27;101148.19;;;0.15;91.54
51147;BME280;37207;53.060;18.726;2023-01-29T11:26:54;101142.19;;;0.17;91.62
51147;BME280;37207;53.060;18.726;2023-01-29T11:29:46;101133.30;;;0.19;91.63
51147;BME280;37207;53.060;18.726;2023-01-29T11:32:24;101132.35;;;0.20;91.66
51147;BME280;37207;53.060;18.726;2023-01-29T11:37:42;101127.83;;;0.25;91.38
51147;BME280;37207;53.060;18.726;2023-01-29T11:42:45;101128.70;;;0.23;91.51
51147;BME280;37207;53.060;18.726;2023-01-29T11:45:32;101119.45;;;0.23;91.64
51147;BME280;37207;53.060;18.726;2023-01-29T11:48:03;101114.35;;;0.21;91.35
51147;BME280;37207;53.060;18.726;2023-01-29T11:50:32;101112.96;;;0.19;91.60
51147;BME280;37207;53.060;18.726;2023-01-29T11:52:59;101113.73;;;0.20;91.43
51147;BME280;37207;53.060;18.726;2023-01-29T11:55:29;101111.86;;;0.21;91.78
51147;BME280;37207;53.060;18.726;2023-01-29T11:58:10;101108.98;;;0.21;91.74
51147;BME280;37207;53.060;18.726;2023-01-29T12:00:40;101107.05;;;0.20;91.91
51147;BME280;37207;53.060;18.726;2023-01-29T12:06:53;101107.59;;;0.20;91.76
51147;BME280;37207;53.060;18.726;2023-01-29T12:09:17;101108.44;;;0.22;91.83
51147;BME280;37207;53.060;18.726;2023-01-29T12:11:45;101108.13;;;0.22;91.75
51147;BME280;37207;53.060;18.726;2023-01-29T12:14:27;101104.48;;;0.22;91.75
51147;BME280;37207;53.060;18.726;2023-01-29T12:17:25;101100.20;;;0.23;91.96
51147;BME280;37207;53.060;18.726;2023-01-29T12:20:00;101094.61;;;0.23;92.02
51147;BME280;37207;53.060;18.726;2023-01-29T12:22:44;101100.96;;;0.25;91.98
51147;BME280;37207;53.060;18.726;2023-01-29T12:25:21;101096.06;;;0.25;91.97
51147;BME280;37207;53.060;18.726;2023-01-29T12:27:59;101096.52;;;0.27;92.06
51147;BME280;37207;53.060;18.726;2023-01-29T12:30:36;101086.43;;;0.26;91.93
51147;BME280;37207;53.060;18.726;2023-01-29T12:33:15;101076.73;;;0.25;91.84
51147;BME280;37207;53.060;18.726;2023-01-29T12:35:49;101075.20;;;0.24;92.18
51147;BME280;37207;53.060;18.726;2023-01-29T12:38:22;101075.06;;;0.21;92.28
51147;BME280;37207;53.060;18.726;2023-01-29T12:41:06;101070.42;;;0.19;92.21
51147;BME280;37207;53.060;18.726;2023-01-29T12:43:45;101071.92;;;0.18;92.38
51147;BME280;37207;53.060;18.726;2023-01-29T12:46:24;101066.81;;;0.17;92.26
51147;BME280;37207;53.060;18.726;2023-01-29T12:48:54;101068.38;;;0.17;92.31
51147;BME280;37207;53.060;18.726;2023-01-29T12:51:25;101064.27;;;0.15;92.52
51147;BME280;37207;53.060;18.726;2023-01-29T12:56:37;101066.55;;;0.11;92.61
51147;BME280;37207;53.060;18.726;2023-01-29T12:59:25;101066.71;;;0.09;92.75
51147;BME280;37207;53.060;18.726;2023-01-29T13:01:55;101078.06;;;0.09;92.87
51147;BME280;37207;53.060;18.726;2023-01-29T13:05:12;101079.14;;;0.09;93.37
51147;BME280;37207;53.060;18.726;2023-01-29T13:07:30;101071.31;;;0.08;93.01
51147;BME280;37207;53.060;18.726;2023-01-29T13:10:04;101060.06;;;0.07;93.04
51147;BME280;37207;53.060;18.726;2023-01-29T13:12:33;101054.02;;;0.05;93.33
51147;BME280;37207;53.060;18.726;2023-01-29T13:15:03;101051.17;;;0.02;93.45
51147;BME280;37207;53.060;18.726;2023-01-29T13:17:36;101048.80;;;0.00;93.46
51147;BME280;37207;53.060;18.726;2023-01-29T13:20:22;101045.34;;;-0.02;93.71
51147;BME280;37207;53.060;18.726;2023-01-29T13:22:51;101042.39;;;-0.03;93.78
51147;BME280;37207;53.060;18.726;2023-01-29T13:25:19;101047.45;;;-0.04;93.59
51147;BME280;37207;53.060;18.726;2023-01-29T13:27:47;101034.95;;;-0.04;93.51
51147;BME280;37207;53.060;18.726;2023-01-29T13:30:29;101033.16;;;-0.04;93.93
51147;BME280;37207;53.060;18.726;2023-01-29T13:32:59;101035.27;;;-0.04;93.97
51147;BME280;37207;53.060;18.726;2023-01-29T13:35:37;101028.83;;;-0.05;94.07
51147;BME280;37207;53.060;18.726;2023-01-29T13:38:05;101024.64;;;-0.06;94.14
51147;BME280;37207;53.060;18.726;2023-01-29T13:40:49;101015.73;;;-0.06;94.06
51147;BME280;37207;53.060;18.726;2023-01-29T13:43:21;101009.90;;;-0.05;93.87
51147;BME280;37207;53.060;18.726;2023-01-29T13:45:50;101006.88;;;-0.04;94.02
51147;BME280;37207;53.060;18.726;2023-01-29T13:48:28;101013.92;;;-0.03;94.18
51147;BME280;37207;53.060;18.726;2023-01-29T13:51:09;101018.19;;;-0.02;94.32
51147;BME280;37207;53.060;18.726;2023-01-29T13:53:43;101026.64;;;-0.02;94.82
51147;BME280;37207;53.060;18.726;2023-01-29T13:56:29;101026.80;;;-0.02;94.69
51147;BME280;37207;53.060;18.726;2023-01-29T13:59:23;101021.52;;;-0.03;94.35
51147;BME280;37207;53.060;18.726;2023-01-29T14:06:56;101019.14;;;-0.05;94.69
51147;BME280;37207;53.060;18.726;2023-01-29T14:17:17;101027.45;;;-0.07;94.55
51147;BME280;37207;53.060;18.726;2023-01-29T14:19:47;101025.66;;;-0.07;94.50
51147;BME280;37207;53.060;18.726;2023-01-29T14:22:25;101022.88;;;-0.08;94.52
51147;BME280;37207;53.060;18.726;2023-01-29T14:24:56;101016.84;;;-0.09;94.56
51147;BME280;37207;53.060;18.726;2023-01-29T14:27:24;101020.10;;;-0.09;94.40
51147;BME280;37207;53.060;18.726;2023-01-29T14:29:58;101019.80;;;-0.10;94.25
51147;BME280;37207;53.060;18.726;2023-01-29T14:32:25;101020.66;;;-0.11;94.38
51147;BME280;37207;53.060;18.726;2023-01-29T14:35:03;101020.67;;;-0.13;94.48
51147;BME280;37207;53.060;18.726;2023-01-29T14:37:34;101015.94;;;-0.13;94.43
51147;BME280;37207;53.060;18.726;2023-01-29T14:40:18;101008.88;;;-0.14;94.56